createdAt,value
2023-05-05T00:01:02.539Z,82.59
2023-05-05T00:03:30.826Z,83.19
2023-05-05T00:05:59.056Z,83.95
2023-05-05T00:08:28.954Z,84.47
2023-05-05T00:10:57.689Z,84.42
2023-05-05T00:13:25.954Z,83.85
2023-05-05T00:15:54.731Z,84.13
2023-05-05T00:18:23.279Z,83.75
2023-05-05T00:20:51.571Z,83.35
2023-05-05T00:23:20.687Z,83.46
2023-05-05T00:25:50.163Z,83.57
2023-05-05T00:28:18.574Z,83.92
2023-05-05T00:30:46.933Z,84.41
2023-05-05T00:33:15.277Z,83.58
2023-05-05T00:35:43.516Z,84.19
2023-05-05T00:38:11.693Z,84.12
2023-05-05T00:40:39.916Z,83.98
2023-05-05T00:43:09.561Z,84.31
2023-05-05T00:45:39.078Z,84.38
2023-05-05T00:48:07.735Z,84.38
2023-05-05T00:50:36.424Z,84.97
2023-05-05T00:53:06.148Z,85.83
2023-05-05T00:55:35.575Z,86.78
2023-05-05T00:58:04.268Z,86.92
2023-05-05T01:00:35.258Z,88.21
2023-05-05T01:03:05.481Z,87.57
2023-05-05T01:05:43.510Z,87.08
2023-05-05T01:08:28.572Z,86.95
2023-05-05T01:11:03.955Z,86.96
2023-05-05T01:13:43.703Z,87.14
2023-05-05T01:16:19.620Z,86.04
2023-05-05T01:18:54.300Z,85.58
2023-05-05T01:21:29.481Z,85.22
2023-05-05T01:24:49.416Z,85.70
2023-05-05T01:27:34.056Z,87.02
2023-05-05T01:30:18.013Z,87.98
2023-05-05T01:32:51.799Z,88.90
2023-05-05T01:35:23.795Z,89.09
2023-05-05T01:38:00.180Z,88.62
2023-05-05T01:40:34.512Z,89.63
2023-05-05T01:43:04.722Z,89.65
2023-05-05T01:45:36.600Z,89.97
2023-05-05T01:48:09.049Z,90.12
2023-05-05T01:50:38.470Z,90.20
2023-05-05T01:53:09.522Z,90.41
2023-05-05T01:55:39.905Z,89.88
2023-05-05T01:58:09.142Z,88.88
2023-05-05T02:00:37.539Z,88.14
2023-05-05T02:03:08.959Z,89.72
2023-05-05T02:05:39.498Z,89.91
2023-05-05T02:08:10.025Z,89.58
2023-05-05T02:10:40.812Z,89.64
2023-05-05T02:13:12.427Z,89.23
2023-05-05T02:15:41.441Z,88.88
2023-05-05T02:18:13.302Z,88.00
2023-05-05T02:20:42.268Z,87.16
2023-05-05T02:23:10.995Z,86.91
2023-05-05T02:25:42.517Z,86.86
2023-05-05T02:28:16.473Z,86.36
2023-05-05T02:30:45.355Z,85.86
2023-05-05T02:33:21.270Z,86.10
2023-05-05T02:35:54.397Z,86.08
2023-05-05T02:38:29.626Z,86.07
2023-05-05T02:41:04.412Z,86.31
2023-05-05T02:43:34.027Z,87.01
2023-05-05T02:46:02.652Z,87.26
2023-05-05T02:48:33.975Z,87.63
2023-05-05T02:51:03.505Z,86.94
2023-05-05T02:53:36.379Z,87.05
2023-05-05T02:56:11.588Z,86.25
2023-05-05T02:58:52.922Z,86.26
2023-05-05T03:01:30.337Z,86.24
2023-05-05T03:04:10.226Z,86.46
2023-05-05T03:06:50.012Z,86.45
2023-05-05T03:09:26.841Z,86.54
2023-05-05T03:12:02.036Z,88.25
2023-05-05T03:14:35.982Z,88.80
2023-05-05T03:17:07.154Z,88.96
2023-05-05T03:19:39.828Z,88.17
2023-05-05T03:22:08.437Z,87.62
2023-05-05T03:24:38.024Z,87.54
2023-05-05T03:27:10.177Z,87.33
2023-05-05T03:29:40.797Z,87.29
2023-05-05T03:32:13.372Z,86.95
2023-05-05T03:34:44.026Z,86.80
2023-05-05T03:37:12.296Z,86.56
2023-05-05T03:39:42.251Z,86.76
2023-05-05T03:42:11.805Z,86.83
2023-05-05T03:44:41.488Z,86.41
2023-05-05T03:47:09.739Z,85.91
2023-05-05T03:49:40.099Z,85.08
2023-05-05T03:52:11.133Z,84.83
2023-05-05T03:54:40.676Z,85.30
2023-05-05T03:57:08.924Z,84.90
2023-05-05T03:59:37.108Z,84.79
2023-05-05T04:02:05.359Z,84.54
2023-05-05T04:04:33.790Z,84.61
2023-05-05T04:07:02.025Z,84.62
2023-05-05T04:09:31.804Z,84.42
2023-05-05T04:12:00.027Z,84.37
2023-05-05T04:14:28.952Z,84.22
2023-05-05T04:16:57.559Z,84.17
2023-05-05T04:19:26.178Z,84.14
2023-05-05T04:21:54.595Z,84.13
2023-05-05T04:24:24.758Z,83.94
2023-05-05T04:26:56.087Z,83.44
2023-05-05T04:29:24.515Z,81.53
2023-05-05T04:31:53.917Z,80.34
2023-05-05T04:34:22.370Z,80.16
2023-05-05T04:36:51.967Z,79.24
2023-05-05T04:39:21.569Z,78.61
2023-05-05T04:41:50.786Z,79.00
2023-05-05T04:44:20.720Z,78.05
2023-05-05T04:46:48.963Z,77.11
2023-05-05T04:49:17.673Z,76.31
2023-05-05T04:51:46.589Z,75.95
2023-05-05T04:54:15.033Z,75.76
2023-05-05T04:56:45.207Z,74.99
2023-05-05T04:59:13.470Z,74.00
2023-05-05T05:01:43.288Z,73.41
2023-05-05T05:04:11.587Z,73.16
2023-05-05T05:06:40.080Z,72.23
2023-05-05T05:09:08.373Z,72.04
2023-05-05T05:11:36.511Z,71.17
2023-05-05T05:14:04.671Z,70.80
2023-05-05T05:16:33.044Z,70.76
2023-05-05T05:19:02.907Z,70.42
2023-05-05T05:21:32.904Z,70.09
2023-05-05T05:24:01.615Z,70.63
2023-05-05T05:26:31.050Z,70.32
2023-05-05T05:28:59.280Z,69.46
2023-05-05T05:31:27.584Z,69.35
2023-05-05T05:33:56.561Z,68.77
2023-05-05T05:36:27.325Z,69.29
2023-05-05T05:38:56.474Z,68.28
2023-05-05T05:41:24.957Z,68.78
2023-05-05T05:43:53.495Z,69.13
2023-05-05T05:46:21.826Z,68.73
2023-05-05T05:48:50.212Z,68.27
2023-05-05T05:51:19.094Z,68.39
2023-05-05T05:53:51.877Z,68.53
2023-05-05T05:56:21.511Z,68.26
2023-05-05T05:58:49.795Z,67.95
2023-05-05T06:01:18.672Z,67.53
2023-05-05T06:03:47.724Z,67.21
2023-05-05T06:06:16.394Z,67.82
2023-05-05T06:08:46.030Z,67.61
2023-05-05T06:11:15.992Z,67.38
2023-05-05T06:13:44.262Z,67.38
2023-05-05T06:16:12.677Z,67.45
2023-05-05T06:18:43.148Z,67.68
2023-05-05T06:21:12.186Z,66.71
2023-05-05T06:23:40.757Z,66.96
2023-05-05T06:26:09.157Z,66.91
2023-05-05T06:28:39.308Z,66.82
2023-05-05T06:31:07.796Z,66.72
2023-05-05T06:33:36.072Z,66.32
2023-05-05T06:36:04.644Z,65.96
2023-05-05T06:38:32.787Z,67.08
2023-05-05T06:41:00.967Z,66.07
2023-05-05T06:43:29.917Z,66.49
2023-05-05T06:46:02.499Z,66.18
2023-05-05T06:48:30.712Z,66.23
2023-05-05T06:50:58.869Z,66.05
2023-05-05T06:53:27.382Z,65.94
2023-05-05T06:55:55.555Z,65.45
2023-05-05T06:58:23.779Z,65.65
2023-05-05T07:00:54.133Z,64.60
2023-05-05T07:03:24.006Z,64.34
2023-05-05T07:05:53.831Z,63.60
2023-05-05T07:08:24.358Z,63.76
2023-05-05T07:10:52.970Z,63.77
2023-05-05T07:13:22.226Z,63.57
2023-05-05T07:15:50.464Z,63.95
2023-05-05T07:18:20.361Z,63.43
2023-05-05T07:20:49.983Z,63.66
2023-05-05T07:23:18.316Z,62.93
2023-05-05T07:25:46.709Z,63.80
2023-05-05T07:28:15.467Z,63.43
2023-05-05T07:30:43.697Z,62.65
2023-05-05T07:33:12.207Z,62.47
2023-05-05T07:35:40.439Z,62.33
2023-05-05T07:38:10.905Z,63.18
2023-05-05T07:40:39.452Z,61.27
2023-05-05T07:43:07.622Z,60.95
2023-05-05T07:45:35.847Z,61.26
2023-05-05T07:48:05.324Z,61.08
2023-05-05T07:50:33.599Z,61.14
2023-05-05T07:53:13.060Z,61.15
2023-05-05T07:55:44.230Z,60.77
2023-05-05T07:58:12.787Z,61.06
2023-05-05T08:00:41.026Z,60.50
2023-05-05T08:03:11.537Z,60.44
2023-05-05T08:05:40.688Z,60.72
2023-05-05T08:08:09.186Z,61.05
2023-05-05T08:10:37.420Z,61.41
2023-05-05T08:13:07.377Z,61.06
2023-05-05T08:15:35.675Z,59.84
2023-05-05T08:18:04.093Z,60.72
2023-05-05T08:20:32.590Z,61.20
2023-05-05T08:23:00.818Z,60.63
2023-05-05T08:25:29.118Z,60.67
2023-05-05T08:27:57.550Z,60.36
2023-05-05T08:30:27.167Z,60.35
2023-05-05T08:32:55.644Z,60.68
2023-05-05T08:35:23.877Z,60.50
2023-05-05T08:37:52.472Z,59.20
2023-05-05T08:40:22.096Z,60.24
2023-05-05T08:42:50.564Z,58.62
2023-05-05T08:45:18.740Z,59.14
2023-05-05T08:47:48.488Z,59.20
2023-05-05T08:50:19.078Z,59.33
2023-05-05T08:52:52.985Z,59.43
2023-05-05T08:55:25.405Z,59.35
2023-05-05T08:57:56.993Z,58.67
2023-05-05T09:00:27.149Z,57.72
2023-05-05T09:02:57.982Z,58.45
2023-05-05T09:05:27.093Z,56.67
2023-05-05T09:07:55.358Z,57.18
2023-05-05T09:10:23.576Z,57.17
2023-05-05T09:12:51.995Z,57.49
2023-05-05T09:15:20.432Z,56.73
2023-05-05T09:17:48.727Z,56.36
2023-05-05T09:20:19.512Z,56.41
2023-05-05T09:22:48.715Z,56.26
2023-05-05T09:25:18.661Z,55.40
2023-05-05T09:27:49.500Z,55.71
2023-05-05T09:30:19.157Z,55.63
2023-05-05T09:32:49.094Z,55.94
2023-05-05T09:35:19.524Z,56.61
2023-05-05T09:37:48.131Z,56.02
2023-05-05T09:40:19.648Z,55.35
2023-05-05T09:42:48.461Z,55.61
2023-05-05T09:45:27.632Z,55.86
2023-05-05T09:47:59.903Z,55.76
2023-05-05T09:50:32.575Z,54.64
2023-05-05T09:53:02.686Z,54.84
2023-05-05T09:55:32.002Z,55.64
2023-05-05T09:58:18.755Z,54.77
2023-05-05T10:00:47.535Z,55.00
2023-05-05T10:03:16.085Z,54.68
2023-05-05T10:05:53.172Z,55.09
2023-05-05T10:08:23.045Z,55.39
2023-05-05T10:10:53.244Z,55.02
2023-05-05T10:13:22.771Z,54.16
2023-05-05T10:15:52.556Z,53.96
2023-05-05T10:18:23.259Z,54.21
2023-05-05T10:20:59.071Z,53.93
2023-05-05T10:23:33.374Z,53.73
2023-05-05T10:26:04.054Z,53.50
2023-05-05T10:28:38.237Z,53.83
2023-05-05T10:31:24.513Z,52.55
2023-05-05T10:33:55.465Z,52.55
2023-05-05T10:36:25.740Z,52.58
2023-05-05T10:38:57.506Z,52.59
2023-05-05T10:41:26.163Z,52.29
2023-05-05T10:43:57.081Z,51.78
2023-05-05T10:46:26.598Z,51.71
2023-05-05T10:49:00.832Z,52.36
2023-05-05T10:51:40.494Z,52.36
2023-05-05T10:54:15.445Z,50.51
2023-05-05T10:56:44.281Z,50.66
2023-05-05T10:59:40.810Z,51.53
2023-05-05T11:02:23.498Z,52.04
2023-05-05T11:05:08.209Z,51.60
2023-05-05T11:07:38.445Z,51.98
2023-05-05T11:10:08.048Z,51.40
2023-05-05T11:13:18.651Z,51.69
2023-05-05T11:15:47.058Z,51.84
2023-05-05T11:18:44.477Z,51.11
2023-05-05T11:21:17.822Z,50.43
2023-05-05T11:23:49.608Z,51.33
2023-05-05T11:26:19.690Z,50.70
2023-05-05T11:28:59.856Z,50.85
2023-05-05T11:31:28.780Z,50.35
2023-05-05T11:34:27.693Z,51.27
2023-05-05T11:37:02.587Z,51.51
2023-05-05T11:39:41.544Z,51.72
2023-05-05T11:42:24.721Z,51.69
2023-05-05T11:44:53.521Z,51.57
2023-05-05T11:47:29.884Z,52.07
2023-05-05T11:49:58.708Z,51.65
2023-05-05T11:52:30.879Z,51.22
2023-05-05T11:55:03.810Z,51.12
2023-05-05T11:57:32.102Z,52.01
2023-05-05T12:00:02.266Z,50.83
2023-05-05T12:02:32.861Z,50.51
2023-05-05T12:05:01.737Z,51.29
2023-05-05T12:07:31.664Z,50.22
2023-05-05T12:10:00.941Z,50.47
2023-05-05T12:12:38.498Z,51.80
2023-05-05T12:15:09.231Z,52.33
2023-05-05T12:17:40.769Z,52.53
2023-05-05T12:20:11.280Z,52.15
2023-05-05T12:22:40.479Z,52.74
2023-05-05T12:25:09.868Z,52.94
2023-05-05T12:27:39.584Z,52.48
2023-05-05T12:30:16.338Z,52.86
2023-05-05T12:32:45.014Z,52.80
2023-05-05T12:35:14.498Z,52.43
2023-05-05T12:37:43.400Z,52.73
2023-05-05T12:40:41.940Z,52.13
2023-05-05T12:43:11.896Z,52.35
2023-05-05T12:45:40.114Z,52.04
2023-05-05T12:48:22.411Z,51.65
2023-05-05T12:50:50.918Z,52.27
2023-05-05T12:53:22.766Z,52.16
2023-05-05T12:55:51.378Z,52.25
2023-05-05T12:58:21.558Z,51.26
2023-05-05T13:01:10.933Z,52.11
2023-05-05T13:03:39.101Z,50.70
2023-05-05T13:06:20.481Z,50.46
2023-05-05T13:08:48.724Z,51.46
2023-05-05T13:11:16.938Z,51.31
2023-05-05T13:13:46.602Z,51.82
2023-05-05T13:16:14.805Z,51.97
2023-05-05T13:18:46.402Z,52.12
2023-05-05T13:21:14.796Z,51.29
2023-05-05T13:23:43.970Z,51.43
2023-05-05T13:26:12.317Z,50.59
2023-05-05T13:28:40.681Z,51.27
2023-05-05T13:31:10.412Z,50.86
2023-05-05T13:33:38.744Z,51.36
2023-05-05T13:36:07.211Z,50.95
2023-05-05T13:38:36.517Z,50.37
2023-05-05T13:41:05.094Z,50.32
2023-05-05T13:43:33.380Z,50.49
2023-05-05T13:46:16.084Z,50.63
2023-05-05T13:48:49.077Z,50.24
2023-05-05T13:51:17.277Z,50.20
2023-05-05T13:53:45.956Z,49.83
2023-05-05T13:56:14.828Z,49.08
2023-05-05T13:58:43.393Z,49.01
2023-05-05T14:01:11.958Z,49.32
2023-05-05T14:03:40.506Z,49.78
2023-05-05T14:06:10.295Z,49.01
2023-05-05T14:08:38.622Z,49.83
2023-05-05T14:11:06.889Z,49.74
2023-05-05T14:13:35.211Z,49.80
2023-05-05T14:16:03.403Z,48.64
2023-05-05T14:18:31.600Z,49.40
2023-05-05T14:20:59.804Z,48.69
2023-05-05T14:23:29.373Z,48.15
2023-05-05T14:25:57.657Z,48.41
2023-05-05T14:28:25.881Z,49.31
2023-05-05T14:30:54.245Z,47.72
2023-05-05T14:33:23.161Z,48.36
2023-05-05T14:35:51.342Z,48.10
2023-05-05T14:38:19.629Z,48.47
2023-05-05T14:40:49.245Z,47.35
2023-05-05T14:43:17.488Z,47.55
2023-05-05T14:45:45.899Z,47.71
2023-05-05T14:48:14.112Z,48.05
2023-05-05T14:50:42.566Z,47.60
2023-05-05T14:53:10.870Z,47.78
2023-05-05T14:55:39.515Z,48.58
2023-05-05T14:58:09.051Z,47.95
2023-05-05T15:00:37.223Z,47.54
2023-05-05T15:03:05.578Z,46.80
2023-05-05T15:05:33.847Z,46.42
2023-05-05T15:08:02.101Z,45.31
2023-05-05T15:10:30.411Z,45.15
2023-05-05T15:12:58.689Z,45.64
2023-05-05T15:15:28.299Z,45.79
2023-05-05T15:17:56.537Z,45.85
2023-05-05T15:20:24.801Z,46.27
2023-05-05T15:22:53.005Z,46.71
2023-05-05T15:25:21.470Z,46.83
2023-05-05T15:27:49.724Z,46.81
2023-05-05T15:30:18.155Z,48.40
2023-05-05T15:32:47.895Z,49.56
2023-05-05T15:35:16.159Z,49.16
2023-05-05T15:37:44.330Z,48.77
2023-05-05T15:40:13.061Z,49.37
2023-05-05T15:42:41.599Z,49.56
2023-05-05T15:45:12.367Z,49.09
2023-05-05T15:47:40.816Z,49.43
2023-05-05T15:50:10.987Z,49.06
2023-05-05T15:52:39.303Z,48.86
2023-05-05T15:55:08.987Z,49.13
2023-05-05T15:57:39.687Z,48.89
2023-05-05T16:00:09.572Z,49.03
2023-05-05T16:02:38.761Z,48.82
2023-05-05T16:05:08.232Z,49.01
2023-05-05T16:07:38.151Z,49.36
2023-05-05T16:10:08.183Z,49.46
2023-05-05T16:12:36.430Z,48.71
2023-05-05T16:15:05.240Z,48.57
2023-05-05T16:17:33.499Z,48.82
2023-05-05T16:20:01.767Z,48.60
2023-05-05T16:22:30.545Z,48.16
2023-05-05T16:25:00.062Z,49.18
2023-05-05T16:27:28.821Z,50.71
2023-05-05T16:29:59.546Z,51.35
2023-05-05T16:32:28.015Z,51.87
2023-05-05T16:34:56.257Z,52.93
2023-05-05T16:37:24.597Z,53.33
2023-05-05T16:39:52.728Z,53.83
2023-05-05T16:42:22.630Z,54.91
2023-05-05T16:44:50.746Z,55.20
2023-05-05T16:47:18.869Z,55.84
2023-05-05T16:49:47.167Z,56.00
2023-05-05T16:52:15.311Z,56.50
2023-05-05T16:54:43.555Z,56.79
2023-05-05T16:57:12.820Z,57.18
2023-05-05T16:59:42.644Z,57.70
2023-05-05T17:02:10.872Z,57.68
2023-05-05T17:04:39.307Z,57.91
2023-05-05T17:07:07.547Z,58.65
2023-05-05T17:09:36.500Z,58.73
2023-05-05T17:12:05.087Z,58.68
2023-05-05T17:14:33.582Z,58.99
2023-05-05T17:17:03.249Z,59.55
2023-05-05T17:19:31.445Z,58.93
2023-05-05T17:21:59.614Z,59.28
2023-05-05T17:24:27.823Z,59.62
2023-05-05T17:26:56.396Z,59.80
2023-05-05T17:29:24.791Z,59.92
2023-05-05T17:31:54.059Z,59.84
2023-05-05T17:34:23.673Z,59.95
2023-05-05T17:36:51.854Z,60.43
2023-05-05T17:39:20.025Z,60.36
2023-05-05T17:41:48.191Z,60.69
2023-05-05T17:44:16.384Z,60.91
2023-05-05T17:46:44.670Z,61.25
2023-05-05T17:49:12.809Z,61.31
2023-05-05T17:51:42.380Z,61.62
2023-05-05T17:54:10.546Z,61.71
2023-05-05T17:56:38.734Z,61.64
2023-05-05T17:59:07.192Z,61.96
2023-05-05T18:01:35.711Z,61.97
2023-05-05T18:04:03.891Z,62.23
2023-05-05T18:06:32.148Z,62.32
2023-05-05T18:09:01.658Z,62.31
2023-05-05T18:11:31.001Z,62.39
2023-05-05T18:13:59.201Z,62.37
2023-05-05T18:16:27.425Z,62.91
2023-05-05T18:18:55.614Z,62.58
2023-05-05T18:21:23.856Z,62.35
2023-05-05T18:23:57.242Z,62.54
2023-05-05T18:26:31.334Z,62.56
2023-05-05T18:28:59.532Z,62.52
2023-05-05T18:31:28.482Z,62.79
2023-05-05T18:33:56.732Z,62.34
2023-05-05T18:36:24.922Z,62.77
2023-05-05T18:38:53.065Z,62.76
2023-05-05T18:41:21.389Z,62.85
2023-05-05T18:43:50.927Z,63.18
2023-05-05T18:46:19.297Z,63.19
2023-05-05T18:48:47.517Z,63.66
2023-05-05T18:51:15.908Z,63.77
2023-05-05T18:53:44.158Z,63.87
2023-05-05T18:56:12.331Z,63.85
2023-05-05T18:58:40.505Z,63.74
2023-05-05T19:01:10.181Z,64.04
2023-05-05T19:03:38.422Z,63.81
2023-05-05T19:06:07.005Z,63.87
2023-05-05T19:08:35.184Z,64.23
2023-05-05T19:11:03.572Z,63.87
2023-05-05T19:13:31.706Z,64.05
2023-05-05T19:15:59.977Z,64.60
2023-05-05T19:18:29.521Z,64.55
2023-05-05T19:20:57.680Z,64.11
2023-05-05T19:23:25.991Z,64.12
2023-05-05T19:25:54.536Z,64.03
2023-05-05T19:28:22.810Z,64.11
2023-05-05T19:30:51.066Z,63.80
2023-05-05T19:33:19.280Z,63.68
2023-05-05T19:35:48.826Z,63.63
2023-05-05T19:38:17.319Z,63.89
2023-05-05T19:40:45.495Z,64.27
2023-05-05T19:43:13.633Z,64.26
2023-05-05T19:45:41.977Z,64.32
2023-05-05T19:48:10.221Z,64.19
2023-05-05T19:50:38.437Z,64.39
2023-05-05T19:53:07.925Z,64.31
2023-05-05T19:55:36.197Z,64.82
2023-05-05T19:58:04.354Z,64.88
2023-05-05T20:00:33.205Z,64.79
2023-05-05T20:03:02.031Z,65.10
2023-05-05T20:05:30.844Z,65.15
2023-05-05T20:07:59.016Z,65.28
2023-05-05T20:10:28.566Z,65.15
2023-05-05T20:12:56.847Z,65.14
2023-05-05T20:15:25.330Z,65.21
2023-05-05T20:17:53.705Z,65.03
2023-05-05T20:20:23.266Z,65.54
2023-05-05T20:22:51.431Z,65.26
2023-05-05T20:25:19.759Z,65.33
2023-05-05T20:27:49.501Z,65.49
2023-05-05T20:30:17.762Z,65.49
2023-05-05T20:32:46.065Z,65.50
2023-05-05T20:35:14.386Z,65.64
2023-05-05T20:37:44.962Z,65.54
2023-05-05T20:40:14.185Z,65.78
2023-05-05T20:42:42.382Z,65.99
2023-05-05T20:45:12.594Z,65.91
2023-05-05T20:47:40.888Z,66.15
2023-05-05T20:50:10.133Z,66.03
2023-05-05T20:52:38.854Z,65.95
2023-05-05T20:55:07.775Z,66.18
2023-05-05T20:57:36.195Z,66.14
2023-05-05T21:00:05.418Z,66.09
2023-05-05T21:02:35.116Z,66.00
2023-05-05T21:05:03.503Z,65.99
2023-05-05T21:07:34.132Z,65.96
2023-05-05T21:10:02.444Z,65.81
2023-05-05T21:12:31.557Z,65.93
2023-05-05T21:14:59.811Z,65.92
2023-05-05T21:17:28.891Z,66.02
2023-05-05T21:19:58.375Z,65.94
2023-05-05T21:22:26.615Z,66.03
2023-05-05T21:24:55.364Z,66.23
2023-05-05T21:27:24.855Z,65.59
2023-05-05T21:29:54.075Z,65.41
2023-05-05T21:32:22.494Z,65.57
2023-05-05T21:34:50.751Z,65.21
2023-05-05T21:37:21.641Z,65.40
2023-05-05T21:39:50.014Z,65.25
2023-05-05T21:42:18.378Z,65.22
2023-05-05T21:44:46.638Z,65.46
2023-05-05T21:47:14.845Z,65.25
2023-05-05T21:49:43.070Z,65.27
2023-05-05T21:52:11.267Z,65.36
2023-05-05T21:54:40.875Z,65.35
2023-05-05T21:57:09.083Z,65.20
2023-05-05T21:59:37.415Z,65.12
2023-05-05T22:02:05.635Z,65.27
2023-05-05T22:04:33.914Z,65.30
2023-05-05T22:07:02.095Z,65.07
2023-05-05T22:09:30.627Z,65.41
2023-05-05T22:12:00.194Z,65.63
2023-05-05T22:14:28.379Z,65.05
2023-05-05T22:16:56.679Z,64.95
2023-05-05T22:19:25.532Z,64.73
2023-05-05T22:21:54.221Z,65.00
2023-05-05T22:24:22.414Z,64.93
2023-05-05T22:26:50.554Z,65.06
2023-05-05T22:29:20.065Z,64.94
2023-05-05T22:31:48.349Z,65.05
2023-05-05T22:34:18.658Z,65.03
2023-05-05T22:36:46.903Z,65.23
2023-05-05T22:39:15.364Z,65.22
2023-05-05T22:41:43.635Z,65.19
2023-05-05T22:44:11.915Z,65.21
2023-05-05T22:46:42.098Z,65.76
2023-05-05T22:49:10.301Z,65.74
2023-05-05T22:51:39.190Z,65.92
2023-05-05T22:54:07.458Z,65.73
2023-05-05T22:56:35.865Z,65.80
2023-05-05T22:59:04.117Z,66.13
2023-05-05T23:01:33.592Z,66.13
2023-05-05T23:04:03.266Z,66.71
2023-05-05T23:06:32.206Z,66.46
2023-05-05T23:09:00.338Z,66.26
2023-05-05T23:11:28.593Z,66.67
2023-05-05T23:13:56.746Z,66.66
2023-05-05T23:16:24.960Z,66.75
2023-05-05T23:18:53.165Z,66.56
2023-05-05T23:21:22.748Z,66.45
2023-05-05T23:23:50.918Z,66.40
2023-05-05T23:26:19.101Z,66.73
2023-05-05T23:28:47.294Z,66.74
2023-05-05T23:31:15.544Z,66.68
2023-05-05T23:33:43.722Z,66.73
2023-05-05T23:36:11.906Z,66.63
2023-05-05T23:38:41.385Z,66.16
2023-05-05T23:41:09.920Z,66.51
2023-05-05T23:43:38.126Z,67.06
2023-05-05T23:46:06.528Z,68.17
2023-05-05T23:48:34.679Z,68.77
2023-05-05T23:51:02.866Z,69.70
2023-05-05T23:53:31.050Z,70.43
2023-05-05T23:56:00.530Z,71.41
2023-05-05T23:58:28.665Z,72.06
